Time;durP1;ratioP1;P1;durP2;ratioP2;P2;SDS_P1;SDS_P2;PMS_P1;PMS_P2;Temp;Humidity;BMP_temperature;BMP_pressure;BME280_temperature;BME280_humidity;BME280_pressure;Samples;Min_cycle;Max_cycle;Signal;HPM_P1;HPM_P2
2022/12/07 00:02:52;;;;;;;;;;;;;;;1.71;100.00;100352.34;5590301;31;34911;-70
2022/12/07 00:05:58;;;;;;;;;;;;;;;1.78;100.00;100361.44;5576653;31;34758;-70
2022/12/07 00:09:05;;;;;;;;;;;;;;;1.66;100.00;100346.63;5590033;31;34790;-70
2022/12/07 00:12:13;;;;;;;;;;;;;;;1.51;100.00;100342.50;5590005;31;34490;-70
2022/12/07 00:15:18;;;;;;;;;;;;;;;1.36;100.00;100341.00;5563592;31;34576;-70
2022/12/07 00:18:25;;;;;;;;;;;;;;;1.19;100.00;100332.59;5590022;31;34844;-70
2022/12/07 00:21:34;;;;;;;;;;;;;;;1.06;100.00;100328.34;5590000;31;34129;-70
2022/12/07 00:24:42;;;;;;;;;;;;;;;0.92;100.00;100321.47;5589869;31;34632;-71
2022/12/07 00:27:48;;;;;;;;;;;;;;;0.95;100.00;100315.22;5576399;31;34879;-71
2022/12/07 00:31:07;;;;;;;;;;;;;;;0.85;100.00;100318.47;5576784;31;34258;-70
2022/12/07 00:34:17;;;;;;;;;;;;;;;0.75;100.00;100320.06;5589773;31;34355;-70
2022/12/07 00:37:26;;;;;;;;;;;;;;;0.66;100.00;100312.03;5589880;31;34287;-70
2022/12/07 00:40:32;;;;;;;;;;;;;;;0.57;100.00;100313.50;5589687;31;34356;-70
2022/12/07 00:43:38;;;;;;;;;;;;;;;0.51;100.00;100307.87;5589735;31;34454;-70
2022/12/07 00:46:45;;;;;;;;;;;;;;;0.42;100.00;100312.78;5588914;31;34899;-70
2022/12/07 00:49:52;;;;;;;;;;;;;;;0.38;100.00;100313.94;5589784;31;34016;-70
2022/12/07 00:53:00;;;;;;;;;;;;;;;0.37;100.00;100312.25;5589640;31;34776;-70
2022/12/07 00:56:11;;;;;;;;;;;;;;;0.38;100.00;100319.16;5589637;31;34291;-70
2022/12/07 00:59:20;;;;;;;;;;;;;;;0.36;100.00;100318.41;5589438;31;34253;-70
2022/12/07 01:02:28;;;;;;;;;;;;;;;0.37;100.00;100309.66;5589579;31;33688;-70
2022/12/07 01:05:37;;;;;;;;;;;;;;;0.29;100.00;100301.50;5575722;31;33831;-70
2022/12/07 01:08:45;;;;;;;;;;;;;;;0.30;100.00;100297.13;5576153;31;34168;-70
2022/12/07 01:11:52;;;;;;;;;;;;;;;0.29;100.00;100298.06;5575281;31;32802;-70
2022/12/07 01:14:58;;;;;;;;;;;;;;;0.27;100.00;100292.13;5589264;31;34745;-71
2022/12/07 01:18:04;;;;;;;;;;;;;;;0.24;100.00;100298.34;5562908;31;35578;-69
2022/12/07 01:21:15;;;;;;;;;;;;;;;0.20;100.00;100301.28;5589753;31;34254;-69
2022/12/07 01:24:23;;;;;;;;;;;;;;;0.16;100.00;100299.81;5589200;31;34865;-70
2022/12/07 01:27:33;;;;;;;;;;;;;;;0.11;100.00;100313.19;5589120;31;34894;-70
2022/12/07 01:30:39;;;;;;;;;;;;;;;0.05;100.00;100305.75;5589191;31;34270;-70
2022/12/07 01:33:48;;;;;;;;;;;;;;;-0.02;100.00;100301.91;5575663;31;34890;-71
2022/12/07 01:36:57;;;;;;;;;;;;;;;-0.03;100.00;100301.06;5588827;31;34317;-70
2022/12/07 01:40:05;;;;;;;;;;;;;;;0.03;100.00;100297.22;5575470;31;34329;-70
2022/12/07 01:43:17;;;;;;;;;;;;;;;0.03;100.00;100301.59;5588820;31;34400;-70
2022/12/07 01:46:26;;;;;;;;;;;;;;;-0.03;100.00;100298.47;5588608;31;35088;-70
2022/12/07 01:49:50;;;;;;;;;;;;;;;-0.01;100.00;100303.59;5574970;31;33424;-70
2022/12/07 01:52:59;;;;;;;;;;;;;;;0.06;100.00;100297.00;5588582;31;34892;-71
2022/12/07 01:56:09;;;;;;;;;;;;;;;0.17;100.00;100293.69;5588582;31;34227;-71
2022/12/07 01:59:18;;;;;;;;;;;;;;;0.29;100.00;100295.47;5590754;31;34306;-70
2022/12/07 02:02:31;;;;;;;;;;;;;;;0.48;100.00;100295.03;5591070;31;34197;-71
2022/12/07 02:05:40;;;;;;;;;;;;;;;0.65;100.00;100289.47;5591206;31;34146;-71
2022/12/07 02:08:47;;;;;;;;;;;;;;;0.76;100.00;100286.94;5591163;31;34412;-71
2022/12/07 02:11:53;;;;;;;;;;;;;;;0.95;100.00;100291.69;5590987;31;34234;-71
2022/12/07 02:14:58;;;;;;;;;;;;;;;1.08;100.00;100295.94;5591323;31;34323;-71
2022/12/07 02:18:09;;;;;;;;;;;;;;;1.17;100.00;100289.22;5590898;31;35014;-71
2022/12/07 02:21:15;;;;;;;;;;;;;;;1.17;100.00;100282.22;5576773;31;34431;-71
2022/12/07 02:24:24;;;;;;;;;;;;;;;1.25;100.00;100285.13;5591060;31;34476;-70
2022/12/07 02:27:41;;;;;;;;;;;;;;;1.37;100.00;100285.16;5590928;31;34759;-71
2022/12/07 02:30:49;;;;;;;;;;;;;;;1.47;100.00;100286.16;5590892;31;34829;-71
2022/12/07 02:34:00;;;;;;;;;;;;;;;1.45;100.00;100286.28;5577454;31;34750;-71
2022/12/07 02:37:19;;;;;;;;;;;;;;;1.41;100.00;100279.59;5590911;31;34898;-70
2022/12/07 02:40:31;;;;;;;;;;;;;;;1.43;100.00;100285.56;5590802;31;34702;-71
2022/12/07 02:43:39;;;;;;;;;;;;;;;1.43;100.00;100288.19;5590861;31;34233;-71
2022/12/07 02:46:53;;;;;;;;;;;;;;;1.50;100.00;100280.72;5590784;31;34205;-70
2022/12/07 02:50:02;;;;;;;;;;;;;;;1.53;100.00;100283.09;5590686;31;35114;-71
2022/12/07 02:53:28;;;;;;;;;;;;;;;1.59;100.00;100288.72;5591005;31;33864;-70
2022/12/07 02:56:43;;;;;;;;;;;;;;;1.64;100.00;100284.00;5590718;31;34409;-71
2022/12/07 02:59:53;;;;;;;;;;;;;;;1.66;100.00;100274.25;5577463;31;34928;-70
2022/12/07 03:03:00;;;;;;;;;;;;;;;1.74;100.00;100273.69;5590813;31;34409;-71
2022/12/07 03:06:22;;;;;;;;;;;;;;;1.68;100.00;100272.34;5590471;31;34359;-71
2022/12/07 03:09:42;;;;;;;;;;;;;;;1.62;100.00;100266.75;5589978;31;34311;-71
2022/12/07 03:13:02;;;;;;;;;;;;;;;1.74;100.00;100263.22;5590718;31;34579;-71
2022/12/07 03:16:20;;;;;;;;;;;;;;;1.73;100.00;100261.56;5590639;31;34207;-70
2022/12/07 03:19:28;;;;;;;;;;;;;;;1.70;100.00;100261.75;5577286;31;34162;-70
2022/12/07 03:22:36;;;;;;;;;;;;;;;1.74;100.00;100260.59;5590396;31;34612;-70
2022/12/07 03:25:47;;;;;;;;;;;;;;;1.80;100.00;100257.50;5577535;31;34389;-70
2022/12/07 03:28:56;;;;;;;;;;;;;;;1.86;100.00;100257.06;5577022;31;34876;-72
2022/12/07 03:32:21;;;;;;;;;;;;;;;1.82;100.00;100260.03;5590453;31;34424;-72
2022/12/07 03:35:53;;;;;;;;;;;;;;;1.91;100.00;100259.31;5576349;31;32829;-70
2022/12/07 03:39:03;;;;;;;;;;;;;;;1.92;100.00;100256.59;5589030;31;34159;-72
2022/12/07 03:42:10;;;;;;;;;;;;;;;1.96;100.00;100273.72;5590288;31;34245;-71
2022/12/07 03:45:17;;;;;;;;;;;;;;;2.00;100.00;100274.31;5590316;31;34935;-72
2022/12/07 03:48:42;;;;;;;;;;;;;;;2.02;100.00;100273.28;5590342;31;34272;-72
2022/12/07 03:51:56;;;;;;;;;;;;;;;2.06;100.00;100279.09;5590272;31;34664;-72
2022/12/07 03:55:07;;;;;;;;;;;;;;;2.16;100.00;100293.16;5576890;31;35197;-72
2022/12/07 03:58:17;;;;;;;;;;;;;;;2.34;100.00;100296.16;5590184;31;34879;-70
2022/12/07 04:01:25;;;;;;;;;;;;;;;2.19;100.00;100285.06;5590123;31;34246;-72
2022/12/07 04:04:36;;;;;;;;;;;;;;;2.14;100.00;100287.19;5590139;31;34261;-74
2022/12/07 04:07:43;;;;;;;;;;;;;;;2.02;100.00;100288.13;5555573;31;1085137;-76
2022/12/07 04:10:50;;;;;;;;;;;;;;;1.83;100.00;100285.25;5569645;32;35022;-76
2022/12/07 04:17:23;;;;;;;;;;;;;;;1.76;100.00;100290.09;5570429;32;34191;-75
2022/12/07 04:20:28;;;;;;;;;;;;;;;1.75;100.00;100289.25;5569219;32;34862;-74
2022/12/07 04:23:37;;;;;;;;;;;;;;;1.79;100.00;100289.03;5569537;32;33744;-75
2022/12/07 04:26:45;;;;;;;;;;;;;;;1.82;100.00;100294.03;5569499;32;34595;-75
2022/12/07 04:29:55;;;;;;;;;;;;;;;1.81;100.00;100294.97;5569589;32;34280;-74
2022/12/07 04:33:06;;;;;;;;;;;;;;;1.86;100.00;100291.06;5570287;32;34419;-74
2022/12/07 04:36:17;;;;;;;;;;;;;;;1.89;100.00;100293.44;5569442;32;34895;-73
2022/12/07 04:39:28;;;;;;;;;;;;;;;1.97;100.00;100287.66;5570163;32;34201;-73
2022/12/07 04:42:36;;;;;;;;;;;;;;;2.03;100.00;100279.34;5570081;32;34593;-73
2022/12/07 04:45:45;;;;;;;;;;;;;;;2.15;100.00;100283.63;5570399;32;34902;-74
2022/12/07 04:48:55;;;;;;;;;;;;;;;2.07;100.00;100286.00;5569893;32;34406;-75
2022/12/07 04:52:02;;;;;;;;;;;;;;;2.07;100.00;100294.69;5569292;32;34733;-75
2022/12/07 04:55:07;;;;;;;;;;;;;;;2.16;100.00;100295.78;5569610;32;34743;-73
2022/12/07 04:58:14;;;;;;;;;;;;;;;2.34;100.00;100294.37;5569337;32;35034;-75
2022/12/07 05:01:22;;;;;;;;;;;;;;;2.36;100.00;100291.66;5569704;32;34244;-74
2022/12/07 05:04:29;;;;;;;;;;;;;;;2.51;100.00;100277.37;5569799;32;34891;-75
2022/12/07 05:07:37;;;;;;;;;;;;;;;2.43;100.00;100283.19;5568968;32;34967;-75
2022/12/07 05:10:44;;;;;;;;;;;;;;;2.45;100.00;100277.84;5568821;32;35016;-73
2022/12/07 05:13:51;;;;;;;;;;;;;;;2.55;100.00;100265.72;5569640;32;34827;-73
2022/12/07 05:16:57;;;;;;;;;;;;;;;2.55;100.00;100271.78;5569530;32;34230;-73
2022/12/07 05:20:06;;;;;;;;;;;;;;;2.54;100.00;100264.03;5569556;32;34909;-74
2022/12/07 05:23:11;;;;;;;;;;;;;;;2.60;100.00;100255.72;5568471;32;34041;-73
2022/12/07 05:26:20;;;;;;;;;;;;;;;2.61;100.00;100255.56;5569443;32;34257;-73
2022/12/07 05:29:25;;;;;;;;;;;;;;;2.62;100.00;100261.63;5568508;32;34390;-73
2022/12/07 05:32:32;;;;;;;;;;;;;;;2.62;100.00;100262.47;5570738;32;34630;-74
2022/12/07 05:35:40;;;;;;;;;;;;;;;2.62;100.00;100253.78;5571908;32;34854;-74
2022/12/07 05:38:46;;;;;;;;;;;;;;;2.63;100.00;100252.84;5571734;32;34892;-74
2022/12/07 05:45:20;;;;;;;;;;;;;;;2.65;100.00;100257.97;5571381;32;34144;-73
2022/12/07 05:48:25;;;;;;;;;;;;;;;2.71;100.00;100254.88;5571696;32;34829;-73
2022/12/07 05:51:31;;;;;;;;;;;;;;;2.72;100.00;100262.59;5571642;32;34060;-73
2022/12/07 05:54:38;;;;;;;;;;;;;;;2.72;100.00;100253.91;5571202;32;34869;-73
2022/12/07 05:59:22;;;;;;;;;;;;;;;2.79;100.00;100253.31;5571492;32;34901;-73
2022/12/07 06:01:10;;;;;;;;;;;;;;;2.74;100.00;100263.31;5571073;32;35044;-73
2022/12/07 06:04:16;;;;;;;;;;;;;;;2.71;100.00;100274.00;5570585;32;34587;-74
2022/12/07 06:07:22;;;;;;;;;;;;;;;2.76;100.00;100274.47;5570613;32;34230;-74
2022/12/07 06:10:27;;;;;;;;;;;;;;;2.72;100.00;100272.22;5578273;31;34271;-73
2022/12/07 06:13:33;;;;;;;;;;;;;;;2.71;100.00;100265.34;5591046;31;34772;-73
2022/12/07 06:16:38;;;;;;;;;;;;;;;2.77;100.00;100272.69;5590806;31;34374;-74
2022/12/07 06:19:42;;;;;;;;;;;;;;;2.73;100.00;100279.12;5590931;31;34835;-73
2022/12/07 06:22:49;;;;;;;;;;;;;;;2.76;100.00;100271.88;5591166;31;34210;-74
2022/12/07 06:25:56;;;;;;;;;;;;;;;2.76;100.00;100271.06;5590861;31;34880;-74
2022/12/07 06:29:03;;;;;;;;;;;;;;;2.77;100.00;100270.09;5590911;31;34924;-73
2022/12/07 06:32:08;;;;;;;;;;;;;;;2.97;100.00;100271.97;5590548;31;34440;-73
2022/12/07 06:35:12;;;;;;;;;;;;;;;2.92;100.00;100274.94;5590671;31;34294;-73
2022/12/07 06:38:16;;;;;;;;;;;;;;;2.88;100.00;100272.69;5590475;31;34839;-72
2022/12/07 06:41:22;;;;;;;;;;;;;;;3.03;100.00;100274.09;5576661;31;34869;-73
2022/12/07 06:44:24;;;;;;;;;;;;;;;3.13;100.00;100276.81;5589992;31;34749;-72
2022/12/07 06:47:28;;;;;;;;;;;;;;;3.13;100.00;100277.66;5590302;31;34310;-71
2022/12/07 06:50:47;;;;;;;;;;;;;;;3.12;100.00;100278.59;5578319;31;34785;-72
2022/12/07 06:53:57;;;;;;;;;;;;;;;3.23;100.00;100288.25;5590277;31;34310;-73
2022/12/07 06:57:00;;;;;;;;;;;;;;;3.25;100.00;100281.06;5590293;31;34421;-72
2022/12/07 07:00:04;;;;;;;;;;;;;;;3.20;100.00;100288.47;5590648;31;34252;-71
2022/12/07 07:03:08;;;;;;;;;;;;;;;3.33;100.00;100292.62;5563386;31;35217;-72
2022/12/07 07:06:12;;;;;;;;;;;;;;;3.15;100.00;100286.22;5590158;31;34765;-71
2022/12/07 07:09:16;;;;;;;;;;;;;;;2.91;100.00;100286.38;5590410;31;33795;-72
2022/12/07 07:12:20;;;;;;;;;;;;;;;2.87;100.00;100297.22;5590360;31;34293;-72
2022/12/07 07:15:24;;;;;;;;;;;;;;;2.73;100.00;100292.22;5576345;31;34215;-71
2022/12/07 07:18:29;;;;;;;;;;;;;;;2.58;100.00;100278.56;5576494;31;32846;-72
2022/12/07 07:21:32;;;;;;;;;;;;;;;2.65;100.00;100299.88;5589841;31;34824;-71
2022/12/07 07:24:37;;;;;;;;;;;;;;;2.61;100.00;100288.81;5589961;31;34382;-72
2022/12/07 07:27:40;;;;;;;;;;;;;;;2.63;100.00;100299.97;5590630;31;34460;-72
2022/12/07 07:30:43;;;;;;;;;;;;;;;2.71;100.00;100294.16;5576367;31;34564;-72
2022/12/07 07:33:47;;;;;;;;;;;;;;;2.83;100.00;100295.81;5589516;31;34341;-72
2022/12/07 07:36:53;;;;;;;;;;;;;;;2.71;100.00;100292.34;5576425;31;34965;-72
2022/12/07 07:39:56;;;;;;;;;;;;;;;2.79;100.00;100294.37;5589981;31;34187;-72
2022/12/07 07:43:00;;;;;;;;;;;;;;;2.90;100.00;100292.59;5576535;31;34264;-72
2022/12/07 07:46:04;;;;;;;;;;;;;;;3.03;100.00;100289.81;5590304;31;34452;-72
2022/12/07 07:49:09;;;;;;;;;;;;;;;3.17;100.00;100284.31;5576275;31;34339;-73
2022/12/07 07:52:12;;;;;;;;;;;;;;;3.32;100.00;100284.87;5576116;31;34953;-73
2022/12/07 07:55:18;;;;;;;;;;;;;;;3.39;100.00;100291.25;5589307;31;34235;-73
2022/12/07 07:58:22;;;;;;;;;;;;;;;3.75;100.00;100298.78;5589629;31;33758;-72
2022/12/07 08:01:27;;;;;;;;;;;;;;;3.72;100.00;100299.03;5563064;31;34338;-71
2022/12/07 08:04:32;;;;;;;;;;;;;;;3.84;100.00;100294.56;5589868;31;34481;-72
2022/12/07 08:07:36;;;;;;;;;;;;;;;3.87;100.00;100300.38;5589617;31;34662;-73
2022/12/07 08:10:40;;;;;;;;;;;;;;;3.57;100.00;100305.53;5575578;31;35269;-73
2022/12/07 08:13:45;;;;;;;;;;;;;;;3.59;100.00;100295.72;5575438;31;35618;-73
2022/12/07 08:16:48;;;;;;;;;;;;;;;3.34;100.00;100296.09;5590202;31;34271;-72
2022/12/07 08:19:51;;;;;;;;;;;;;;;3.47;100.00;100302.81;5575910;31;32762;-73
2022/12/07 08:22:56;;;;;;;;;;;;;;;3.46;100.00;100311.66;5589775;31;34002;-72
2022/12/07 08:26:00;;;;;;;;;;;;;;;3.53;100.00;100304.13;5589639;31;34844;-73
2022/12/07 08:29:04;;;;;;;;;;;;;;;3.57;100.00;100312.56;5589504;31;34180;-72
2022/12/07 08:32:08;;;;;;;;;;;;;;;3.86;100.00;100314.47;5589669;31;34288;-73
2022/12/07 08:35:14;;;;;;;;;;;;;;;4.16;100.00;100312.88;5589815;31;34530;-72
2022/12/07 08:38:18;;;;;;;;;;;;;;;4.06;100.00;100322.50;5575429;31;35034;-73
2022/12/07 08:41:23;;;;;;;;;;;;;;;4.19;100.00;100325.75;5589655;31;34443;-72
2022/12/07 08:44:28;;;;;;;;;;;;;;;4.42;100.00;100324.63;5589682;31;34878;-72
2022/12/07 08:47:36;;;;;;;;;;;;;;;4.50;100.00;100322.22;5589640;31;34735;-73
2022/12/07 08:50:40;;;;;;;;;;;;;;;4.50;100.00;100324.84;5575804;31;35149;-71
2022/12/07 08:53:54;;;;;;;;;;;;;;;4.78;100.00;100320.69;5576607;31;34687;-73
2022/12/07 08:56:58;;;;;;;;;;;;;;;5.03;100.00;100328.09;5589343;31;34888;-73
2022/12/07 09:00:04;;;;;;;;;;;;;;;5.26;100.00;100328.72;5575352;31;34462;-73
2022/12/07 09:03:08;;;;;;;;;;;;;;;5.35;100.00;100329.69;5589259;31;34858;-72
2022/12/07 09:06:12;;;;;;;;;;;;;;;5.06;100.00;100321.75;5561744;31;33297;-73
2022/12/07 09:09:16;;;;;;;;;;;;;;;5.29;100.00;100325.81;5574977;31;32814;-72
2022/12/07 09:12:21;;;;;;;;;;;;;;;5.22;100.00;100332.59;5589154;31;34501;-73
2022/12/07 09:15:25;;;;;;;;;;;;;;;5.21;100.00;100329.13;5575629;31;34436;-74
2022/12/07 09:18:28;;;;;;;;;;;;;;;5.36;100.00;100331.38;5589052;31;34325;-72
2022/12/07 09:21:33;;;;;;;;;;;;;;;5.31;100.00;100323.06;5589113;31;34468;-72
2022/12/07 09:24:38;;;;;;;;;;;;;;;5.20;100.00;100319.56;5589125;31;34657;-72
2022/12/07 09:27:41;;;;;;;;;;;;;;;5.52;100.00;100305.34;5574483;31;34662;-71
2022/12/07 09:30:46;;;;;;;;;;;;;;;5.48;100.00;100309.22;5588963;31;34148;-73
2022/12/07 09:34:10;;;;;;;;;;;;;;;5.53;100.00;100302.56;5577466;31;34893;-72
2022/12/07 09:37:14;;;;;;;;;;;;;;;5.51;100.00;100312.44;5588733;31;35196;-73
2022/12/07 09:40:20;;;;;;;;;;;;;;;5.44;100.00;100303.41;5575034;31;35692;-72
2022/12/07 09:43:25;;;;;;;;;;;;;;;5.42;100.00;100307.16;5588736;31;34304;-72
2022/12/07 09:46:30;;;;;;;;;;;;;;;5.69;100.00;100302.03;5587523;31;34264;-73
2022/12/07 09:49:34;;;;;;;;;;;;;;;5.66;100.00;100295.25;5588129;31;34570;-71
2022/12/07 09:52:38;;;;;;;;;;;;;;;6.00;100.00;100289.59;5588390;31;34584;-72
2022/12/07 09:55:43;;;;;;;;;;;;;;;6.09;100.00;100292.22;5588269;31;34527;-73
2022/12/07 09:58:46;;;;;;;;;;;;;;;6.08;100.00;100292.34;5574532;31;34251;-71
2022/12/07 10:01:50;;;;;;;;;;;;;;;5.97;100.00;100290.69;5588202;31;34266;-72
2022/12/07 10:04:53;;;;;;;;;;;;;;;6.21;100.00;100287.59;5574619;31;34550;-72
2022/12/07 10:07:56;;;;;;;;;;;;;;;6.29;100.00;100284.28;5588036;31;34910;-74
2022/12/07 10:11:10;;;;;;;;;;;;;;;6.22;100.00;100284.00;5587947;31;34457;-72
2022/12/07 10:14:14;;;;;;;;;;;;;;;6.12;100.00;100276.12;5588064;31;34327;-73
2022/12/07 10:17:32;;;;;;;;;;;;;;;6.41;100.00;100276.03;5588076;31;34249;-72
2022/12/07 10:20:35;;;;;;;;;;;;;;;6.43;100.00;100284.66;5564035;31;34330;-73
2022/12/07 10:24:03;;;;;;;;;;;;;;;6.41;100.00;100275.22;5577033;31;34219;-73
2022/12/07 10:27:19;;;;;;;;;;;;;;;6.69;100.00;100269.00;5590752;31;34938;-71
2022/12/07 10:30:25;;;;;;;;;;;;;;;6.59;100.00;100277.91;5577210;31;34684;-72
2022/12/07 10:33:32;;;;;;;;;;;;;;;6.74;100.00;100271.19;5564065;31;34662;-73
2022/12/07 10:36:36;;;;;;;;;;;;;;;7.09;100.00;100267.81;5590744;31;34318;-73
2022/12/07 10:39:52;;;;;;;;;;;;;;;6.90;100.00;100266.12;5590352;31;35080;-73
2022/12/07 10:43:05;;;;;;;;;;;;;;;6.65;100.00;100256.25;5590462;31;34564;-71
2022/12/07 10:46:18;;;;;;;;;;;;;;;6.85;100.00;100257.81;5565900;31;32844;-73
2022/12/07 10:49:31;;;;;;;;;;;;;;;7.04;100.00;100244.53;5578073;31;34848;-72
2022/12/07 10:52:53;;;;;;;;;;;;;;;7.42;99.33;100252.16;5576384;31;34357;-72
2022/12/07 10:56:17;;;;;;;;;;;;;;;7.60;96.47;100260.06;5590684;31;35501;-73
2022/12/07 10:59:33;;;;;;;;;;;;;;;7.59;97.20;100261.09;5590832;31;34977;-72
2022/12/07 11:02:38;;;;;;;;;;;;;;;7.19;98.16;100256.22;5590401;31;34140;-71
2022/12/07 11:05:53;;;;;;;;;;;;;;;6.81;97.26;100251.19;5578383;31;34729;-71
2022/12/07 11:09:01;;;;;;;;;;;;;;;6.31;99.54;100250.69;5590864;31;33397;-71
2022/12/07 11:12:25;;;;;;;;;;;;;;;6.43;99.99;100246.91;5589912;31;35020;-71
2022/12/07 11:15:48;;;;;;;;;;;;;;;6.55;99.86;100240.47;5590437;31;34418;-71
2022/12/07 11:19:10;;;;;;;;;;;;;;;6.44;100.00;100238.84;5576821;31;33327;-72
2022/12/07 11:22:28;;;;;;;;;;;;;;;6.29;100.00;100247.37;5576752;31;36622;-72
2022/12/07 11:25:34;;;;;;;;;;;;;;;6.27;100.00;100230.87;5563854;31;34971;-72
2022/12/07 11:28:59;;;;;;;;;;;;;;;6.52;100.00;100238.16;5576540;31;34294;-73
2022/12/07 11:32:14;;;;;;;;;;;;;;;6.55;99.53;100238.69;5576874;31;34750;-73
2022/12/07 11:35:31;;;;;;;;;;;;;;;6.79;99.91;100239.94;5589999;31;34267;-72
2022/12/07 11:38:55;;;;;;;;;;;;;;;6.84;99.71;100235.91;5590273;31;34202;-72
2022/12/07 11:42:20;;;;;;;;;;;;;;;7.13;99.85;100232.25;5590185;31;34478;-73
2022/12/07 11:45:27;;;;;;;;;;;;;;;7.14;99.92;100236.56;5590457;31;34847;-72
2022/12/07 11:48:31;;;;;;;;;;;;;;;6.98;98.65;100238.03;5577888;31;34563;-72
2022/12/07 11:51:37;;;;;;;;;;;;;;;7.13;97.29;100241.00;5590225;31;34205;-74
2022/12/07 11:54:42;;;;;;;;;;;;;;;6.61;100.00;100239.91;5576382;31;34219;-72
2022/12/07 11:57:47;;;;;;;;;;;;;;;6.46;100.00;100246.63;5576146;31;34695;-72
2022/12/07 12:00:52;;;;;;;;;;;;;;;6.41;100.00;100243.59;5589886;31;34852;-72
2022/12/07 12:04:11;;;;;;;;;;;;;;;6.42;100.00;100235.56;5590355;31;34425;-72
2022/12/07 12:07:17;;;;;;;;;;;;;;;6.48;100.00;100231.50;5576110;31;34287;-72
2022/12/07 12:10:49;;;;;;;;;;;;;;;6.72;97.99;100226.53;5576005;31;35495;-71
2022/12/07 12:14:11;;;;;;;;;;;;;;;6.76;96.40;100222.63;5576309;31;34736;-71
2022/12/07 12:17:41;;;;;;;;;;;;;;;6.79;97.11;100205.66;5578535;31;34848;-72
2022/12/07 12:20:43;;;;;;;;;;;;;;;6.69;96.02;100205.72;5576322;31;33013;-73
2022/12/07 12:23:50;;;;;;;;;;;;;;;7.06;92.69;100202.19;5589791;31;34238;-72
2022/12/07 12:26:59;;;;;;;;;;;;;;;6.97;93.75;100199.44;5563275;31;34248;-73
2022/12/07 12:30:04;;;;;;;;;;;;;;;6.85;97.14;100189.28;5590891;31;34325;-72
2022/12/07 12:33:14;;;;;;;;;;;;;;;6.83;100.00;100185.94;5589841;31;34220;-71
2022/12/07 12:36:24;;;;;;;;;;;;;;;7.03;96.51;100184.00;5575514;31;34546;-72
2022/12/07 12:39:28;;;;;;;;;;;;;;;7.11;94.35;100182.28;5589819;31;34302;-71
2022/12/07 12:42:43;;;;;;;;;;;;;;;6.83;94.83;100183.28;5588754;31;34301;-72
2022/12/07 12:45:46;;;;;;;;;;;;;;;6.70;96.25;100183.66;5575690;31;35014;-72
2022/12/07 12:48:50;;;;;;;;;;;;;;;6.72;97.64;100178.25;5589535;31;34230;-71
2022/12/07 12:52:13;;;;;;;;;;;;;;;6.83;96.92;100183.28;5589891;31;34920;-70
2022/12/07 12:55:20;;;;;;;;;;;;;;;6.97;93.37;100180.97;5545146;31;35115;-71
2022/12/07 12:58:29;;;;;;;;;;;;;;;7.01;93.24;100184.16;5576184;31;34245;-71
2022/12/07 13:01:36;;;;;;;;;;;;;;;6.88;93.37;100181.88;5588902;31;34143;-71
2022/12/07 13:04:49;;;;;;;;;;;;;;;6.75;93.84;100186.69;5589109;31;34475;-70
2022/12/07 13:07:53;;;;;;;;;;;;;;;6.71;93.33;100193.25;5589419;31;34835;-70
2022/12/07 13:11:16;;;;;;;;;;;;;;;6.53;93.35;100202.91;5575526;31;34606;-70
2022/12/07 13:14:40;;;;;;;;;;;;;;;6.50;93.78;100200.56;5589610;31;34894;-71
2022/12/07 13:17:55;;;;;;;;;;;;;;;6.64;95.19;100193.97;5589324;31;34219;-71
2022/12/07 13:21:02;;;;;;;;;;;;;;;6.69;92.43;100189.91;5589168;31;34379;-72
2022/12/07 13:24:09;;;;;;;;;;;;;;;6.49;93.45;100202.34;5562694;31;35616;-72
2022/12/07 13:27:14;;;;;;;;;;;;;;;6.60;93.58;100203.13;5589183;31;34338;-71
2022/12/07 13:30:19;;;;;;;;;;;;;;;6.44;95.62;100209.87;5589224;31;34917;-71
2022/12/07 13:33:27;;;;;;;;;;;;;;;6.30;94.80;100206.87;5575621;31;34283;-70
2022/12/07 13:36:38;;;;;;;;;;;;;;;6.26;97.23;100205.50;5575056;31;34758;-70
2022/12/07 13:39:46;;;;;;;;;;;;;;;6.19;95.06;100204.44;5588713;31;34182;-70
2022/12/07 13:42:57;;;;;;;;;;;;;;;6.15;95.94;100203.06;5588772;31;34839;-71
2022/12/07 13:46:07;;;;;;;;;;;;;;;6.01;96.42;100204.34;5574786;31;32861;-69
2022/12/07 13:49:30;;;;;;;;;;;;;;;5.86;98.54;100208.34;5574954;31;34608;-69
2022/12/07 13:52:43;;;;;;;;;;;;;;;5.69;100.00;100215.19;5589247;31;34505;-70
2022/12/07 13:55:47;;;;;;;;;;;;;;;5.61;100.00;100220.34;5564245;31;33839;-71
2022/12/07 13:58:57;;;;;;;;;;;;;;;5.64;100.00;100225.31;5565284;31;34743;-71
2022/12/07 14:02:17;;;;;;;;;;;;;;;5.71;100.00;100225.59;5577362;31;33662;-71
2022/12/07 14:05:28;;;;;;;;;;;;;;;5.75;100.00;100224.31;5577071;31;35192;-71
2022/12/07 14:08:32;;;;;;;;;;;;;;;5.81;100.00;100221.94;5591319;31;34633;-70
2022/12/07 14:11:37;;;;;;;;;;;;;;;5.65;100.00;100227.81;5590942;31;34876;-70
2022/12/07 14:14:47;;;;;;;;;;;;;;;5.61;100.00;100222.97;5591146;31;34764;-71
2022/12/07 14:17:52;;;;;;;;;;;;;;;5.50;100.00;100215.22;5590794;31;34874;-70
2022/12/07 14:21:06;;;;;;;;;;;;;;;5.33;100.00;100226.41;5577162;31;34935;-71
2022/12/07 14:24:17;;;;;;;;;;;;;;;5.23;100.00;100229.88;5590704;31;34705;-70
2022/12/07 14:27:22;;;;;;;;;;;;;;;5.04;100.00;100224.59;5590861;31;34910;-71
2022/12/07 14:30:34;;;;;;;;;;;;;;;4.97;100.00;100217.38;5590755;31;34237;-71
2022/12/07 14:33:38;;;;;;;;;;;;;;;4.76;100.00;100220.94;5576127;31;34689;-70
2022/12/07 14:36:42;;;;;;;;;;;;;;;4.68;100.00;100225.22;5576939;31;34293;-69
2022/12/07 14:39:47;;;;;;;;;;;;;;;4.65;100.00;100222.81;5576686;31;34364;-70
2022/12/07 14:42:53;;;;;;;;;;;;;;;4.64;100.00;100229.06;5577005;31;34976;-69
2022/12/07 14:45:57;;;;;;;;;;;;;;;4.68;100.00;100230.47;5576618;31;32786;-70
2022/12/07 14:49:02;;;;;;;;;;;;;;;4.81;100.00;100238.94;5577030;31;34262;-70
2022/12/07 14:52:27;;;;;;;;;;;;;;;4.77;100.00;100234.91;5590656;31;34620;-70
2022/12/07 14:55:52;;;;;;;;;;;;;;;4.69;100.00;100240.00;5576191;31;35876;-70
2022/12/07 14:58:56;;;;;;;;;;;;;;;4.65;100.00;100243.84;5590224;31;33765;-69
2022/12/07 15:02:01;;;;;;;;;;;;;;;4.52;100.00;100246.72;5590267;31;34364;-71
2022/12/07 15:05:05;;;;;;;;;;;;;;;4.34;100.00;100240.44;5590762;31;34847;-71
2022/12/07 15:08:15;;;;;;;;;;;;;;;4.28;100.00;100247.03;5590129;31;34262;-70
2022/12/07 15:11:18;;;;;;;;;;;;;;;4.14;100.00;100251.78;5569439;32;34381;-71
2022/12/07 15:14:21;;;;;;;;;;;;;;;4.28;100.00;100248.81;5569182;32;35156;-70
2022/12/07 15:17:24;;;;;;;;;;;;;;;4.21;100.00;100248.50;5556774;32;34179;-71
2022/12/07 15:20:33;;;;;;;;;;;;;;;4.11;100.00;100244.19;5570556;32;34879;-72
2022/12/07 15:23:36;;;;;;;;;;;;;;;3.93;100.00;100234.25;5569462;32;34193;-70
2022/12/07 15:26:39;;;;;;;;;;;;;;;3.88;100.00;100252.19;5570810;32;34496;-70
2022/12/07 15:29:42;;;;;;;;;;;;;;;3.96;100.00;100242.84;5569503;32;34841;-71
2022/12/07 15:32:50;;;;;;;;;;;;;;;3.91;100.00;100257.19;5569043;32;33661;-70
2022/12/07 15:35:55;;;;;;;;;;;;;;;3.79;100.00;100257.37;5570421;32;34291;-71
2022/12/07 15:38:59;;;;;;;;;;;;;;;3.74;100.00;100249.88;5569768;32;35146;-71
2022/12/07 15:42:18;;;;;;;;;;;;;;;3.70;100.00;100266.00;5570089;32;34237;-70
2022/12/07 15:45:24;;;;;;;;;;;;;;;3.46;100.00;100264.44;5568642;32;34797;-71
2022/12/07 15:48:28;;;;;;;;;;;;;;;3.31;100.00;100265.69;5570240;32;34864;-70
2022/12/07 15:51:33;;;;;;;;;;;;;;;3.39;100.00;100270.28;5568920;32;35487;-71
2022/12/07 15:54:36;;;;;;;;;;;;;;;3.16;100.00;100263.47;5569163;32;34276;-71
2022/12/07 15:57:42;;;;;;;;;;;;;;;3.08;100.00;100271.94;5556730;32;34839;-70
2022/12/07 16:00:47;;;;;;;;;;;;;;;3.03;100.00;100271.47;5570091;32;34842;-71
2022/12/07 16:03:57;;;;;;;;;;;;;;;2.95;100.00;100276.50;5569990;32;34830;-70
2022/12/07 16:07:02;;;;;;;;;;;;;;;3.06;100.00;100276.47;5556110;32;35021;-71
2022/12/07 16:10:07;;;;;;;;;;;;;;;3.25;100.00;100270.56;5568937;32;34335;-71
2022/12/07 16:13:13;;;;;;;;;;;;;;;3.12;100.00;100267.28;5569798;32;33839;-70
2022/12/07 16:16:21;;;;;;;;;;;;;;;3.02;100.00;100277.66;5554908;32;35988;-70
2022/12/07 16:19:25;;;;;;;;;;;;;;;2.92;100.00;100277.56;5569808;32;34227;-70